Time;durP1;ratioP1;P1;durP2;ratioP2;P2;SDS_P1;SDS_P2;PMS_P1;PMS_P2;Temp;Humidity;BMP_temperature;BMP_pressure;BME280_temperature;BME280_humidity;BME280_pressure;Samples;Min_cycle;Max_cycle;Signal;HPM_P1;HPM_P2
2022/03/25 00:01:45;;;;;;;22.80;14.00;;;9.70;40.60;;;10.29;36.33;98526.69;5041362;28;20343;-40
2022/03/25 00:04:17;;;;;;;25.97;14.97;;;9.70;40.50;;;10.29;36.29;98524.03;5027421;28;20041;-40
2022/03/25 00:06:45;;;;;;;21.87;13.93;;;9.80;40.50;;;10.27;36.41;98532.16;5027202;28;20594;-40
2022/03/25 00:09:13;;;;;;;21.97;14.47;;;9.70;41.30;;;10.23;36.42;98536.91;5027843;28;20059;-40
2022/03/25 00:11:41;;;;;;;22.07;13.87;;;9.70;40.70;;;10.23;36.26;98528.94;5025648;28;20045;-41
2022/03/25 00:14:11;;;;;;;20.73;13.43;;;9.70;40.60;;;10.23;36.73;98522.78;5027403;28;20056;-41
2022/03/25 00:16:39;;;;;;;23.40;14.63;;;9.70;40.80;;;10.17;36.64;98526.81;5026270;28;20242;-41
2022/03/25 00:19:07;;;;;;;27.93;14.37;;;9.60;41.10;;;10.14;36.95;98531.56;5026553;28;20049;-41
2022/03/25 00:21:36;;;;;;;26.03;14.73;;;9.60;41.30;;;10.10;36.68;98530.16;5028022;28;20131;-41
2022/03/25 00:24:05;;;;;;;23.10;14.17;;;9.50;41.20;;;10.06;36.78;98534.91;5026868;28;20057;-41
2022/03/25 00:26:33;;;;;;;23.47;13.73;;;9.50;41.20;;;10.01;36.97;98532.66;5024742;28;20109;-40
2022/03/25 00:29:01;;;;;;;21.80;13.27;;;9.40;41.50;;;9.96;37.00;98531.41;5027054;28;20057;-40
2022/03/25 00:31:29;;;;;;;21.40;13.33;;;9.30;41.80;;;9.90;37.28;98532.78;5027298;28;20057;-40
2022/03/25 00:34:02;;;;;;;28.07;14.13;;;9.20;42.10;;;9.84;37.32;98523.50;5024373;28;20055;-40
2022/03/25 00:36:32;;;;;;;24.00;13.30;;;9.20;42.50;;;9.82;37.36;98522.81;5026849;28;20045;-40
2022/03/25 00:39:01;;;;;;;22.73;12.80;;;9.30;42.20;;;9.83;37.28;98524.50;5024145;28;20446;-40
2022/03/25 00:41:36;;;;;;;23.15;13.57;;;9.20;42.00;;;9.81;37.33;98525.63;5024217;28;20049;-40
2022/03/25 00:44:07;;;;;;;23.93;14.00;;;9.20;41.80;;;9.78;37.31;98520.56;5023548;28;20294;-40
2022/03/25 00:46:37;;;;;;;23.33;14.27;;;9.20;42.00;;;9.74;37.51;98514.66;5025291;28;20046;-40
2022/03/25 00:49:06;;;;;;;22.60;14.63;;;9.20;42.20;;;9.71;37.38;98512.25;5026452;28;20468;-40
2022/03/25 00:51:34;;;;;;;24.87;13.87;;;9.20;42.40;;;9.66;37.66;98514.50;5027628;28;20064;-42
2022/03/25 00:54:03;;;;;;;22.07;14.03;;;9.00;42.50;;;9.60;37.91;98505.25;5026162;28;20061;-40
2022/03/25 00:56:30;;;;;;;21.67;13.00;;;8.90;42.80;;;9.58;37.76;98509.03;5025016;28;20287;-40
2022/03/25 00:58:59;;;;;;;27.77;15.17;;;9.00;42.60;;;9.57;37.80;98505.50;5023659;28;20080;-40
2022/03/25 01:01:27;;;;;;;19.43;12.27;;;9.00;42.40;;;9.53;37.62;98500.59;5026043;28;20057;-40
2022/03/25 01:03:55;;;;;;;24.93;13.43;;;8.90;42.40;;;9.51;37.63;98505.22;5023004;28;20053;-40
2022/03/25 01:06:24;;;;;;;22.87;14.47;;;8.90;42.20;;;9.51;37.51;98502.56;5025587;28;20068;-40
2022/03/25 01:08:52;;;;;;;24.63;15.60;;;8.90;42.50;;;9.46;37.85;98505.63;5026023;28;20049;-40
2022/03/25 01:11:20;;;;;;;24.00;13.93;;;8.80;42.70;;;9.43;37.83;98508.53;5023784;28;20067;-40
2022/03/25 01:13:48;;;;;;;26.03;16.23;;;8.80;42.80;;;9.39;37.78;98505.28;5025292;28;20060;-40
2022/03/25 01:16:16;;;;;;;24.73;14.90;;;8.80;42.50;;;9.40;37.78;98509.66;5026113;28;20053;-40
2022/03/25 01:18:44;;;;;;;23.77;14.23;;;8.80;42.40;;;9.39;37.70;98505.28;5024461;28;20068;-40
2022/03/25 01:21:17;;;;;;;21.73;13.37;;;8.80;42.40;;;9.36;37.94;98502.06;5024400;28;20050;-40
2022/03/25 01:23:46;;;;;;;25.63;14.00;;;8.70;42.60;;;9.32;38.07;98505.94;5023673;28;20229;-40
2022/03/25 01:26:14;;;;;;;23.40;13.83;;;8.70;42.90;;;9.27;38.13;98509.03;5023838;28;20057;-40
2022/03/25 01:28:42;;;;;;;31.87;14.73;;;8.60;43.10;;;9.23;38.14;98512.91;5023383;28;20304;-40
2022/03/25 01:31:10;;;;;;;21.07;12.80;;;8.60;43.30;;;9.18;38.54;98509.81;5024452;28;20243;-40
2022/03/25 01:33:40;;;;;;;23.07;13.50;;;8.50;43.60;;;9.12;38.27;98511.16;5022858;28;20045;-40
2022/03/25 01:36:09;;;;;;;22.53;14.67;;;8.40;43.50;;;9.06;38.50;98511.69;5008510;28;20407;-40
2022/03/25 01:38:37;;;;;;;25.87;15.20;;;8.40;43.80;;;9.08;38.26;98515.06;5025649;28;20327;-40
2022/03/25 01:41:07;;;;;;;27.00;14.77;;;8.40;43.40;;;9.11;38.20;98512.16;5026077;28;20240;-40
2022/03/25 01:43:35;;;;;;;22.27;13.77;;;8.50;43.00;;;9.12;38.09;98508.50;5024590;28;20057;-40
2022/03/25 01:46:03;;;;;;;23.77;14.07;;;8.60;42.90;;;9.13;38.10;98510.19;5022983;28;20045;-40
2022/03/25 01:48:31;;;;;;;27.37;15.00;;;8.50;42.90;;;9.12;38.38;98505.00;5024748;28;20079;-39
2022/03/25 01:51:02;;;;;;;23.13;13.70;;;8.60;43.20;;;9.11;38.39;98505.97;5023166;28;20059;-39
2022/03/25 01:53:30;;;;;;;20.97;14.23;;;8.50;43.60;;;9.09;38.41;98503.44;5024048;28;20049;-39
2022/03/25 01:56:01;;;;;;;23.70;14.47;;;8.50;43.50;;;9.05;38.17;98505.53;5025532;28;20049;-39
2022/03/25 01:58:31;;;;;;;23.37;14.43;;;8.50;43.30;;;9.05;38.18;98505.53;5023505;28;20075;-39
2022/03/25 02:01:03;;;;;;;22.60;12.83;;;8.50;43.30;;;9.03;38.46;98510.16;5025521;28;20065;-39
2022/03/25 02:03:31;;;;;;;21.90;13.63;;;8.40;43.10;;;9.04;38.07;98503.84;5025117;28;20052;-40
2022/03/25 02:06:00;;;;;;;28.83;14.90;;;8.50;42.90;;;9.04;38.21;98503.84;5023315;28;20243;-40
2022/03/25 02:08:28;;;;;;;23.20;13.23;;;8.50;43.10;;;9.02;38.20;98505.78;5023088;28;20063;-40
2022/03/25 02:10:58;;;;;;;23.07;13.67;;;8.40;42.90;;;9.02;38.34;98504.97;5039852;28;20092;-40
2022/03/25 02:13:28;;;;;;;23.90;13.23;;;8.50;42.80;;;9.00;38.57;98501.59;5022208;28;20053;-40
2022/03/25 02:16:00;;;;;;;27.20;15.13;;;8.40;43.20;;;8.91;38.44;98499.72;5023837;28;20064;-40
2022/03/25 02:18:28;;;;;;;22.10;13.47;;;8.20;43.70;;;8.83;38.57;98506.50;5024954;28;20053;-40
2022/03/25 02:20:57;;;;;;;22.70;15.80;;;8.20;43.80;;;8.86;38.66;98508.06;5023946;28;20061;-40
2022/03/25 02:23:26;;;;;;;24.73;13.30;;;8.30;43.80;;;8.85;38.61;98503.72;5006821;28;20072;-40
2022/03/25 02:25:54;;;;;;;23.83;15.40;;;8.30;43.70;;;8.79;38.82;98506.91;5040075;28;20285;-40
2022/03/25 02:28:24;;;;;;;24.97;14.73;;;8.20;44.20;;;8.79;38.92;98502.41;5022120;28;20049;-40
2022/03/25 02:30:56;;;;;;;25.43;14.87;;;8.20;44.00;;;8.78;38.73;98505.19;5022149;28;20256;-40
2022/03/25 02:33:24;;;;;;;23.50;14.70;;;8.20;43.80;;;8.78;39.04;98499.88;5023790;28;20238;-40
2022/03/25 02:35:52;;;;;;;26.97;15.63;;;8.20;43.90;;;8.76;38.84;98505.34;5022238;28;20059;-40
2022/03/25 02:38:24;;;;;;;27.67;14.73;;;8.20;44.00;;;8.74;38.85;98499.28;5024884;28;20335;-40
2022/03/25 02:40:53;;;;;;;27.23;15.88;;;8.10;44.80;;;8.70;39.22;98505.00;5027816;28;20684;-40
2022/03/25 02:43:26;;;;;;;25.10;14.43;;;8.00;44.50;;;8.67;39.17;98504.28;5026111;28;20254;-40
2022/03/25 02:46:04;;;;;;;23.77;14.30;;;8.10;44.50;;;8.67;39.26;98506.13;5028006;28;20053;-40
2022/03/25 02:48:33;;;;;;;24.33;13.53;;;8.00;44.40;;;8.65;39.22;98505.41;5026758;28;20056;-40
2022/03/25 02:51:01;;;;;;;24.90;14.97;;;8.00;44.50;;;8.62;39.57;98501.16;5010762;28;20057;-40
2022/03/25 02:53:29;;;;;;;23.93;14.50;;;8.00;44.80;;;8.59;39.80;98505.91;5027929;28;20052;-40
2022/03/25 02:55:57;;;;;;;26.30;14.83;;;8.00;45.20;;;8.58;39.52;98501.56;5028347;28;20053;-39
2022/03/25 02:58:25;;;;;;;29.97;14.73;;;7.90;44.90;;;8.57;39.48;98491.91;5027312;28;20216;-40
2022/03/25 03:00:53;;;;;;;26.90;15.13;;;8.00;44.90;;;8.58;39.15;98501.56;5027795;28;20049;-39
2022/03/25 03:03:21;;;;;;;25.10;15.13;;;8.00;44.90;;;8.59;39.78;98501.44;5027946;28;20068;-39
2022/03/25 03:05:49;;;;;;;24.07;14.60;;;8.00;44.80;;;8.55;39.50;98494.72;5028473;28;20045;-39
2022/03/25 03:08:17;;;;;;;28.07;16.50;;;8.00;45.20;;;8.53;39.48;98503.75;5026303;28;20300;-39
2022/03/25 03:10:45;;;;;;;25.80;14.60;;;7.90;45.20;;;8.47;39.74;98503.31;5028438;28;20342;-40
2022/03/25 03:13:19;;;;;;;26.85;14.52;;;7.80;45.70;;;8.44;39.70;98502.72;5026937;28;20260;-40
2022/03/25 03:15:49;;;;;;;29.13;16.47;;;7.80;46.10;;;8.38;39.95;98503.19;5027124;28;20122;-39
2022/03/25 03:18:17;;;;;;;25.50;15.90;;;7.70;45.90;;;8.33;40.41;98502.72;5027191;28;20052;-39
2022/03/25 03:20:44;;;;;;;27.57;15.27;;;7.70;46.10;;;8.31;39.96;98504.66;5028261;28;20053;-40
2022/03/25 03:23:13;;;;;;;27.53;14.40;;;7.70;46.10;;;8.29;40.01;98502.13;5028264;28;20352;-39
2022/03/25 03:25:41;;;;;;;28.13;17.00;;;7.70;46.20;;;8.27;39.96;98499.59;5027831;28;20053;-39
2022/03/25 03:28:09;;;;;;;29.20;15.07;;;7.70;46.10;;;8.25;40.60;98503.34;5026861;28;20048;-39
2022/03/25 03:30:37;;;;;;;29.57;16.03;;;7.60;46.20;;;8.23;40.50;98497.31;5027802;28;20037;-39
2022/03/25 03:33:05;;;;;;;28.30;15.50;;;7.60;46.30;;;8.18;40.26;98491.53;5028826;28;20251;-39
2022/03/25 03:35:34;;;;;;;27.47;16.20;;;7.60;46.40;;;8.13;41.04;98497.22;5027806;28;20045;-39
2022/03/25 03:38:03;;;;;;;27.67;15.67;;;7.50;46.70;;;8.11;40.64;98493.03;5027178;28;20072;-39
2022/03/25 03:40:32;;;;;;;31.30;16.23;;;7.50;46.70;;;8.07;40.72;98495.09;5028363;28;20076;-40
2022/03/25 03:43:03;;;;;;;28.53;15.90;;;7.40;46.90;;;8.01;41.00;98493.78;5027769;28;20297;-40
2022/03/25 03:45:32;;;;;;;28.87;15.83;;;7.40;47.10;;;8.02;41.35;98495.44;5010958;28;20056;-40
2022/03/25 03:48:00;;;;;;;24.27;15.57;;;7.40;47.00;;;7.98;40.64;98488.69;5027116;28;20369;-40
2022/03/25 03:50:26;;;;;;;27.33;15.33;;;7.30;47.00;;;7.96;40.91;98495.09;5027828;28;20072;-39
2022/03/25 03:52:54;;;;;;;26.53;16.17;;;7.30;47.10;;;7.95;41.31;98488.09;5028153;28;20073;-40
2022/03/25 03:55:25;;;;;;;28.10;15.63;;;7.30;47.00;;;7.94;40.65;98489.09;5027659;28;20058;-40
2022/03/25 03:58:11;;;;;;;27.17;16.00;;;7.30;47.30;;;7.92;40.80;98488.38;5026790;28;20064;-39
2022/03/25 04:00:39;;;;;;;29.87;17.83;;;7.30;46.80;;;7.91;41.08;98482.22;5027928;28;20049;-39
2022/03/25 04:03:07;;;;;;;29.60;18.27;;;7.30;46.70;;;7.89;40.41;98481.53;5027347;28;20060;-39
2022/03/25 04:05:36;;;;;;;31.37;17.57;;;7.30;46.90;;;7.84;40.67;98491.63;5026887;28;20061;-39
2022/03/25 04:08:04;;;;;;;29.73;17.97;;;7.20;46.90;;;7.81;40.92;98489.22;5027759;28;20365;-40
2022/03/25 04:10:32;;;;;;;33.07;19.90;;;7.20;47.00;;;7.77;41.28;98485.97;5027714;28;20286;-39
2022/03/25 04:13:00;;;;;;;30.10;16.87;;;7.10;47.10;;;7.73;40.72;98495.13;5027277;28;20060;-39
2022/03/25 04:15:28;;;;;;;23.63;14.47;;;7.10;47.30;;;7.73;40.98;98492.47;5027449;28;20063;-39
2022/03/25 04:17:56;;;;;;;31.30;16.87;;;7.00;47.20;;;7.70;41.23;98487.44;5026775;28;20224;-39
2022/03/25 04:20:25;;;;;;;29.37;15.53;;;7.00;47.50;;;7.67;41.27;98493.81;5027701;28;20053;-40
2022/03/25 04:22:53;;;;;;;26.93;14.47;;;7.00;47.70;;;7.66;41.10;98491.31;5026680;28;20300;-39
2022/03/25 04:25:21;;;;;;;29.53;16.50;;;7.00;47.70;;;7.69;41.59;98494.53;5026746;28;20065;-39
2022/03/25 04:27:57;;;;;;;29.93;16.33;;;7.10;47.70;;;7.69;41.51;98491.88;5025560;28;20041;-39
2022/03/25 04:30:34;;;;;;;26.77;15.57;;;7.10;47.80;;;7.66;41.60;98492.16;5027044;28;20128;-39
2022/03/25 04:33:02;;;;;;;26.70;15.97;;;7.00;47.70;;;7.65;41.50;98490.44;5028248;28;20051;-40
2022/03/25 04:35:32;;;;;;;27.07;15.87;;;7.00;47.80;;;7.63;41.89;98483.59;5027143;28;20224;-39
2022/03/25 04:38:01;;;;;;;28.23;15.57;;;7.00;48.00;;;7.61;42.08;98485.53;5027433;28;20246;-40
2022/03/25 04:40:30;;;;;;;30.00;15.30;;;7.00;48.00;;;7.59;41.81;98487.44;5026663;28;20053;-39
2022/03/25 04:43:01;;;;;;;28.87;15.27;;;6.90;48.20;;;7.54;41.40;98481.66;5027266;28;20106;-39
2022/03/25 04:45:30;;;;;;;27.30;17.43;;;6.90;48.40;;;7.51;42.25;98484.56;5027346;28;20071;-40
2022/03/25 04:47:59;;;;;;;29.07;16.73;;;6.80;48.50;;;7.51;41.80;98481.94;5025836;28;20060;-40
2022/03/25 04:50:27;;;;;;;29.27;16.03;;;6.80;48.50;;;7.50;42.53;98483.72;5026823;28;20045;-40
2022/03/25 04:52:55;;;;;;;26.13;14.90;;;6.80;48.70;;;7.49;42.50;98492.63;5025036;28;20266;-40
2022/03/25 04:55:24;;;;;;;29.80;17.10;;;6.80;48.50;;;7.46;42.45;98491.09;5024787;28;20053;-40
2022/03/25 04:57:51;;;;;;;28.10;15.13;;;6.80;48.70;;;7.37;41.75;98494.44;5025533;28;20049;-40
2022/03/25 05:00:19;;;;;;;26.17;15.80;;;6.70;48.90;;;7.36;41.93;98495.41;5026204;28;20063;-40
2022/03/25 05:02:47;;;;;;;31.13;16.73;;;6.70;49.00;;;7.37;42.06;98496.25;5024040;28;20304;-40
2022/03/25 05:05:15;;;;;;;29.07;16.63;;;6.70;48.90;;;7.33;42.38;98498.31;5026196;28;20297;-40
2022/03/25 05:07:45;;;;;;;31.83;15.53;;;6.70;49.20;;;7.32;42.68;98488.66;5026028;28;20668;-40
2022/03/25 05:10:14;;;;;;;31.43;18.10;;;6.70;49.30;;;7.29;42.93;98489.75;5025984;28;20188;-40
2022/03/25 05:12:43;;;;;;;32.03;17.10;;;6.70;49.20;;;7.26;42.37;98486.50;5025759;28;20053;-40
2022/03/25 05:15:12;;;;;;;36.07;19.07;;;6.60;49.40;;;7.24;42.76;98491.91;5025328;28;20067;-40
2022/03/25 05:17:49;;;;;;;25.77;15.73;;;6.60;49.40;;;7.22;42.22;98485.88;5026381;28;20053;-40
2022/03/25 05:20:18;;;;;;;31.87;17.47;;;6.60;50.00;;;7.23;42.82;98495.53;5025482;28;20105;-40
2022/03/25 05:22:48;;;;;;;29.00;16.17;;;6.60;49.40;;;7.21;42.84;98489.50;5025195;28;20248;-40
2022/03/25 05:25:17;;;;;;;30.13;17.83;;;6.60;49.40;;;7.23;42.32;98494.66;5025746;28;20063;-40
2022/03/25 05:28:00;;;;;;;31.60;16.97;;;6.70;49.40;;;7.24;42.80;98489.25;5025064;28;20274;-40
2022/03/25 05:30:33;;;;;;;32.07;16.97;;;6.70;50.40;;;7.23;43.10;98492.00;5025627;28;20053;-40
2022/03/25 05:33:01;;;;;;;38.93;17.37;;;6.60;49.50;;;7.24;43.16;98493.72;5024104;28;20306;-40
2022/03/25 05:35:31;;;;;;;30.80;16.97;;;6.70;49.50;;;7.24;42.48;98501.66;5024893;28;20057;-40
2022/03/25 05:37:59;;;;;;;29.23;16.57;;;6.70;49.50;;;7.24;42.83;98497.19;5024282;28;20056;-40
2022/03/25 05:40:27;;;;;;;32.50;17.50;;;6.70;49.50;;;7.20;42.81;98509.00;5024501;28;20047;-40
2022/03/25 05:42:56;;;;;;;30.53;17.17;;;6.60;49.50;;;7.13;43.34;98501.66;5024765;28;20373;-40
2022/03/25 05:45:24;;;;;;;30.20;15.13;;;6.50;49.90;;;7.11;42.57;98507.06;5025516;28;20084;-40
2022/03/25 05:47:52;;;;;;;29.43;15.60;;;6.50;50.00;;;7.12;42.89;98511.41;5025036;28;20063;-40
2022/03/25 05:50:20;;;;;;;29.93;15.70;;;6.50;49.80;;;7.15;43.08;98516.44;5023626;28;20054;-40
2022/03/25 05:52:48;;;;;;;29.70;16.97;;;6.60;49.50;;;7.19;43.11;98511.75;5025865;28;20045;-40
2022/03/25 05:55:19;;;;;;;26.03;15.83;;;6.70;49.40;;;7.22;43.14;98519.47;5025025;28;20056;-40
2022/03/25 05:57:47;;;;;;;33.63;16.50;;;6.70;49.10;;;7.24;42.63;98520.19;5024929;28;20059;-40
2022/03/25 06:00:15;;;;;;;27.10;16.27;;;6.70;49.30;;;7.24;43.17;98522.84;5024719;28;20049;-40
2022/03/25 06:02:45;;;;;;;32.40;16.63;;;6.70;49.10;;;7.24;42.48;98518.38;5023572;28;20060;-40
2022/03/25 06:05:13;;;;;;;33.77;17.87;;;6.80;49.00;;;7.28;42.93;98526.94;5023574;28;20344;-40
2022/03/25 06:07:44;;;;;;;35.50;18.67;;;6.80;49.10;;;7.24;43.30;98528.97;5025640;28;20053;-40
2022/03/25 06:10:14;;;;;;;34.60;17.93;;;6.70;49.60;;;7.20;42.93;98524.06;5024807;28;20057;-40
2022/03/25 06:12:42;;;;;;;45.53;19.07;;;6.60;50.00;;;7.17;43.87;98530.41;5025531;28;20049;-40
2022/03/25 06:15:11;;;;;;;32.57;17.80;;;6.60;50.20;;;7.17;43.01;98527.75;5026208;28;20372;-40
2022/03/25 06:17:50;;;;;;;30.67;17.33;;;6.60;50.10;;;7.17;43.26;98527.75;5024947;28;20049;-41
2022/03/25 06:20:24;;;;;;;37.47;18.70;;;6.60;50.60;;;7.19;43.76;98531.16;5023917;28;20292;-41
2022/03/25 06:22:52;;;;;;;33.22;18.15;;;6.70;50.00;;;7.23;43.61;98532.59;5008160;28;20057;-41
2022/03/25 06:25:20;;;;;;;35.93;17.90;;;6.70;49.90;;;7.19;43.82;98527.66;5025745;28;20041;-41
2022/03/25 06:27:53;;;;;;;59.13;27.33;;;6.70;50.10;;;7.25;43.33;98538.63;5042774;28;20242;-41
2022/03/25 06:30:25;;;;;;;127.38;61.58;;;6.80;49.80;;;7.32;43.16;98541.63;5044167;28;20074;-41
2022/03/25 06:32:53;;;;;;;143.60;67.30;;;6.80;49.70;;;7.35;43.18;98546.69;5044436;28;20247;-40
2022/03/25 06:35:22;;;;;;;105.53;45.73;;;6.90;49.70;;;7.39;43.78;98549.97;5043655;28;20047;-41
2022/03/25 06:37:55;;;;;;;116.17;57.63;;;6.90;49.70;;;7.45;43.34;98552.13;5044191;28;20267;-40
2022/03/25 06:40:24;;;;;;;69.68;33.53;;;7.00;49.60;;;7.49;43.64;98545.63;5044859;28;20197;-40
2022/03/25 06:42:54;;;;;;;40.87;21.50;;;7.10;49.80;;;7.55;43.27;98549.59;5044045;28;20063;-41
2022/03/25 06:45:23;;;;;;;28.43;17.07;;;7.20;49.90;;;7.60;43.37;98548.28;5044758;28;20263;-43
2022/03/25 06:47:51;;;;;;;31.63;17.03;;;7.20;50.00;;;7.64;44.13;98552.38;5044139;28;20045;-44
2022/03/25 06:50:21;;;;;;;27.13;16.47;;;7.20;50.10;;;7.65;43.94;98554.06;5044591;28;20343;-41
2022/03/25 06:52:50;;;;;;;27.60;15.73;;;7.20;50.00;;;7.67;43.94;98560.06;5043988;28;20123;-41
2022/03/25 06:55:19;;;;;;;28.43;16.77;;;7.20;50.10;;;7.69;43.61;98555.50;5042874;28;20053;-42
2022/03/25 06:57:49;;;;;;;32.50;16.33;;;7.20;50.00;;;7.74;43.35;98556.97;5045171;28;20075;-41
2022/03/25 07:00:20;;;;;;;29.80;17.07;;;7.30;50.30;;;7.75;43.95;98564.78;5045204;28;20041;-41
2022/03/25 07:02:49;;;;;;;30.37;16.07;;;7.30;50.20;;;7.78;43.92;98564.53;5043040;28;20232;-40
2022/03/25 07:05:18;;;;;;;24.80;16.03;;;7.40;50.00;;;7.80;43.58;98569.72;5042813;28;20047;-41
2022/03/25 07:07:46;;;;;;;32.30;17.90;;;7.40;49.90;;;7.81;44.15;98564.31;5043733;28;20351;-41
2022/03/25 07:10:16;;;;;;;30.70;16.83;;;7.40;49.70;;;7.83;43.56;98569.47;5043204;28;20079;-41
2022/03/25 07:12:45;;;;;;;29.60;16.20;;;7.40;49.90;;;7.84;43.55;98571.16;5044359;28;20045;-41
2022/03/25 07:15:13;;;;;;;25.17;15.10;;;7.40;50.00;;;7.84;43.91;98572.00;5042048;28;20327;-41
2022/03/25 07:17:43;;;;;;;32.20;17.73;;;7.40;50.00;;;7.86;43.53;98575.38;5044302;28;20325;-41
2022/03/25 07:20:14;;;;;;;31.57;16.23;;;7.50;50.10;;;7.91;43.82;98572.38;5043277;28;20045;-41
2022/03/25 07:22:43;;;;;;;28.77;15.80;;;7.50;49.90;;;7.96;44.21;98575.50;5044678;28;20061;-40
2022/03/25 07:25:13;;;;;;;25.93;16.07;;;7.60;49.90;;;8.01;44.27;98583.09;5045494;28;20052;-40
2022/03/25 07:27:43;;;;;;;27.33;15.47;;;7.70;50.00;;;8.05;44.08;98581.88;5048365;28;20049;-41
2022/03/25 07:30:12;;;;;;;27.87;17.33;;;7.70;49.90;;;8.11;43.74;98583.22;5048269;28;20041;-41
2022/03/25 07:32:41;;;;;;;31.40;17.57;;;7.80;49.50;;;8.15;43.72;98584.66;5047050;28;20052;-39
2022/03/25 07:35:10;;;;;;;31.83;17.57;;;7.90;49.50;;;8.21;43.44;98577.03;5047735;28;20067;-40
2022/03/25 07:37:41;;;;;;;36.37;17.37;;;7.90;49.10;;;8.27;43.48;98589.78;5046246;28;20121;-39
2022/03/25 07:40:12;;;;;;;24.63;15.33;;;8.00;48.80;;;8.32;43.30;98586.78;5011973;28;20079;-40
2022/03/25 07:42:43;;;;;;;29.07;16.40;;;8.10;48.50;;;8.39;42.98;98593.25;5005922;28;20057;-42
2022/03/25 07:45:13;;;;;;;27.37;15.37;;;8.10;48.30;;;8.46;43.04;98588.34;5005847;28;20050;-41
2022/03/25 07:47:49;;;;;;;30.23;16.57;;;8.20;48.10;;;8.53;42.98;98592.19;5006141;28;20076;-41
2022/03/25 07:50:21;;;;;;;26.00;15.57;;;8.30;48.10;;;8.60;42.76;98587.22;5006866;28;20224;-41
2022/03/25 07:52:51;;;;;;;32.37;17.80;;;8.40;47.90;;;8.67;43.03;98593.72;5003553;28;20220;-41
2022/03/25 07:55:20;;;;;;;29.63;17.07;;;8.50;47.60;;;8.73;42.81;98595.03;5007223;28;20049;-41
2022/03/25 07:57:49;;;;;;;32.33;17.63;;;8.50;47.40;;;8.79;42.89;98595.34;5007369;28;20054;-41
2022/03/25 08:00:18;;;;;;;27.57;16.63;;;8.60;47.30;;;8.85;42.73;98599.31;5008067;28;20045;-42
2022/03/25 08:02:49;;;;;;;28.83;16.43;;;8.70;47.30;;;8.93;42.57;98601.34;5007605;28;20046;-42
2022/03/25 08:05:18;;;;;;;30.97;16.87;;;8.80;47.10;;;8.98;42.42;98605.28;5006682;28;20053;-42
2022/03/25 08:08:10;;;;;;;34.00;17.03;;;8.80;47.10;;;9.04;42.58;98596.81;5007049;28;20779;-43
2022/03/25 08:10:41;;;;;;;34.53;19.00;;;9.00;47.30;;;9.11;42.45;98605.13;5014852;28;20252;-42
2022/03/25 08:13:10;;;;;;;31.00;18.17;;;8.90;46.90;;;9.17;42.57;98609.91;5007098;28;20056;-42
2022/03/25 08:15:38;;;;;;;30.90;17.83;;;9.00;47.70;;;9.22;42.28;98597.06;5007260;28;20050;-44
2022/03/25 08:18:13;;;;;;;32.50;18.43;;;9.10;46.80;;;9.28;42.17;98598.38;5007756;28;20060;-42
2022/03/25 08:20:44;;;;;;;31.53;18.17;;;9.10;46.70;;;9.33;42.22;98600.66;5007639;28;20251;-42
2022/03/25 08:27:48;;;;;;;32.40;18.93;;;9.20;46.80;;;9.40;42.20;98605.31;5007913;28;20137;-41
2022/03/25 08:28:57;;;;;;;31.37;18.63;;;9.30;46.40;;;9.51;41.87;98606.22;5006016;28;20056;-42
2022/03/25 08:31:46;;;;;;;28.20;15.83;;;9.40;46.20;;;9.57;41.88;98601.19;5007726;28;20060;-42
2022/03/25 08:34:15;;;;;;;29.30;17.57;;;9.40;46.00;;;9.63;41.81;98607.81;5007020;28;20062;-42
2022/03/25 08:36:47;;;;;;;30.93;18.73;;;9.50;45.90;;;9.70;41.58;98613.47;5004896;28;20045;-42
2022/03/25 08:39:17;;;;;;;29.20;18.03;;;9.60;45.70;;;9.76;41.48;98604.94;5007149;28;20053;-42
2022/03/25 08:41:45;;;;;;;31.57;18.20;;;9.70;45.50;;;9.83;41.66;98601.63;5008462;28;20046;-42
2022/03/25 08:44:13;;;;;;;33.00;17.77;;;9.70;45.60;;;9.91;41.52;98606.28;5005344;28;20049;-42
2022/03/25 08:46:40;;;;;;;31.63;18.97;;;9.80;45.40;;;9.97;41.48;98608.41;5006624;28;20050;-42
2022/03/25 08:49:10;;;;;;;29.87;18.57;;;9.90;45.40;;;10.02;41.29;98608.84;5005378;28;20060;-42
2022/03/25 08:51:39;;;;;;;26.83;18.00;;;10.00;45.40;;;10.07;40.95;98604.94;5007879;28;20058;-41
2022/03/25 08:54:08;;;;;;;30.53;18.47;;;10.00;44.70;;;10.11;41.04;98609.84;5005480;28;20256;-42
2022/03/25 08:56:37;;;;;;;32.67;18.63;;;10.00;44.80;;;10.13;41.11;98612.38;5007463;28;20049;-42
2022/03/25 08:59:05;;;;;;;33.07;20.23;;;10.10;44.80;;;10.15;41.29;98608.59;5007545;28;20220;-41
2022/03/25 09:01:36;;;;;;;34.33;20.23;;;10.10;46.00;;;10.20;41.61;98601.06;5035405;28;20099;-42
2022/03/25 09:04:04;;;;;;;31.63;17.83;;;10.20;45.60;;;10.28;41.71;98608.38;5033150;28;20053;-41
2022/03/25 09:06:32;;;;;;;31.40;18.43;;;10.20;45.80;;;10.30;41.99;98610.91;5035209;28;20052;-41
2022/03/25 09:08:59;;;;;;;38.17;19.47;;;10.30;46.10;;;10.37;42.30;98607.59;5034437;28;20323;-42
2022/03/25 09:11:27;;;;;;;36.43;20.43;;;10.40;46.50;;;10.46;42.32;98610.41;5035040;28;20415;-42
2022/03/25 09:13:55;;;;;;;38.47;19.60;;;10.50;46.80;;;10.53;42.20;98609.72;5035327;28;20040;-42
2022/03/25 09:16:23;;;;;;;35.17;18.50;;;10.60;46.60;;;10.60;42.31;98608.22;5034457;28;20067;-42
2022/03/25 09:18:52;;;;;;;35.60;20.17;;;10.60;46.80;;;10.63;42.32;98607.91;5033858;28;20053;-41
2022/03/25 09:21:20;;;;;;;35.40;19.87;;;10.60;46.80;;;10.70;42.41;98599.38;5034339;28;20052;-41
2022/03/25 09:23:48;;;;;;;32.87;20.53;;;10.70;47.30;;;10.74;42.72;98603.44;5035431;28;20127;-41
2022/03/25 09:26:17;;;;;;;36.83;19.33;;;10.70;47.90;;;10.76;42.63;98599.66;5033292;28;20061;-42
2022/03/25 09:28:45;;;;;;;35.80;19.90;;;10.70;47.50;;;10.77;43.17;98603.16;5035768;28;20083;-42
2022/03/25 09:31:12;;;;;;;34.13;21.17;;;10.70;47.80;;;10.79;42.93;98611.84;5025972;28;20271;-42
2022/03/25 09:36:47;;;;;;;31.77;20.20;;;10.90;46.70;;;10.95;42.63;98613.97;5025994;28;20049;-41
2022/03/25 09:39:14;;;;;;;31.03;18.50;;;11.00;47.20;;;11.01;42.69;98610.72;5026037;28;20053;-43
2022/03/25 09:41:42;;;;;;;33.40;19.03;;;11.00;47.30;;;11.08;42.86;98614.53;5024385;28;20049;-41
2022/03/25 09:44:10;;;;;;;34.30;20.73;;;11.10;47.20;;;11.09;42.55;98618.91;5025392;28;20053;-41
2022/03/25 09:46:41;;;;;;;32.60;19.20;;;11.10;46.50;;;11.14;42.47;98621.13;5025987;28;20060;-42
2022/03/25 09:49:11;;;;;;;33.27;21.17;;;11.20;46.30;;;11.20;42.29;98617.88;5023761;28;20067;-43
2022/03/25 09:51:41;;;;;;;37.90;20.47;;;11.30;46.30;;;11.29;41.85;98610.88;5022664;28;20243;-42
2022/03/25 09:54:13;;;;;;;36.13;21.05;;;11.30;45.70;;;11.36;41.34;98617.31;5024818;28;20046;-42
2022/03/25 09:56:41;;;;;;;32.17;19.23;;;11.40;45.00;;;11.41;41.05;98617.72;5024933;28;20059;-41
2022/03/25 09:59:09;;;;;;;38.00;20.75;;;11.40;44.90;;;11.44;41.26;98614.78;5024902;28;20211;-42
2022/03/25 10:01:37;;;;;;;36.70;20.35;;;11.50;45.00;;;11.49;40.69;98612.50;5026596;28;20263;-41
2022/03/25 10:04:06;;;;;;;40.20;21.60;;;11.60;44.50;;;11.58;40.90;98616.16;5023134;28;20067;-41
2022/03/25 10:06:53;;;;;;;37.05;21.15;;;11.60;44.30;;;11.65;40.63;98603.06;5025226;28;20047;-42
2022/03/25 10:09:22;;;;;;;35.78;21.15;;;11.70;43.60;;;11.74;40.95;98603.06;5023853;28;20395;-42
2022/03/25 10:11:49;;;;;;;33.22;20.67;;;11.80;44.30;;;11.81;40.40;98606.00;5025707;28;20276;-41
2022/03/25 10:14:23;;;;;;;39.60;21.00;;;11.90;43.80;;;11.89;40.64;98611.47;5025114;28;20050;-42
2022/03/25 10:16:53;;;;;;;36.33;20.80;;;12.00;43.90;;;11.95;40.35;98604.72;5026205;28;20067;-41
2022/03/25 10:19:48;;;;;;;32.25;19.90;;;12.00;43.70;;;12.02;40.08;98606.66;5025098;28;20053;-42
2022/03/25 10:22:17;;;;;;;31.70;20.15;;;12.10;42.60;;;12.12;39.58;98603.09;5024693;28;20067;-42
2022/03/25 10:24:52;;;;;;;30.05;19.83;;;12.20;43.10;;;12.21;39.70;98602.19;5024659;28;20060;-41
2022/03/25 10:27:25;;;;;;;31.63;19.38;;;12.20;43.00;;;12.28;39.49;98602.44;5024628;28;20061;-42
2022/03/25 10:29:56;;;;;;;31.75;19.50;;;12.40;42.50;;;12.31;39.49;98603.00;5024084;28;20343;-43
2022/03/25 10:32:26;;;;;;;35.55;19.17;;;12.40;42.40;;;12.37;39.04;98604.25;5025790;28;20049;-42
2022/03/25 10:35:11;;;;;;;31.45;19.60;;;12.50;42.10;;;12.40;38.53;98607.41;5023208;28;20052;-41